Terminal Aerodrome Forecast
Issued by NWS Northern Indiana

Home | Current Version | Previous Version | Graphics & Text | Print | Product List | Glossary On
Versions: 1 2 3 4 5 6 7 8 9 10 11 12 13 14 15 16 17
417
FTUS43 KIWX 221741
TAFFWA
TAF
KFWA 221741Z 2218/2318 21016KT P6SM BKN025
     FM230500 20011KT P6SM VCTS OVC030CB
     FM230900 22010KT 4SM SHRA VCTS OVC015CB
      TEMPO 2309/2313 TSRA OVC008CB
     FM231500 26009KT 6SM -SHRA VCTS OVC010CB=

USA.gov is the U.S. government's official web portal to all federal, state and local government web resources and services.